Terminal Aerodrome Forecast
Issued by NWS

Home | Current Version | Previous Version | Text Only | Print | Product List | Glossary On
Versions: 1 2 3 4 5 6 7 8 9 10 11 12 13 14 15 16 17 18
000
FTUS46 KMTR 252300
TAFSNS
TAF
KSNS 252322Z 2600/2624 29014KT P6SM SKC
     FM260300 30008KT P6SM FEW005
     FM260500 30006KT P6SM OVC004
     FM261000 VRB03KT 5SM BR OVC003
     FM261600 VRB06KT P6SM SKC
     FM262100 29014KT P6SM SKC=

USA.gov is the U.S. government's official web portal to all federal, state and local government web resources and services.